Impacts METAR Board
IDs:

KBWI - Baltimore-Washington, MD, US

Updated at: 0800 UTC 19 Jun 2018
Potential Impact None Slight Moderate High
Time 18/20Z 18/21Z 18/22Z 18/23Z 19/00Z 19/01Z 19/02Z 19/03Z 19/04Z 19/05Z 19/06Z 19/07Z 19/08Z
Temp93 91 86 87 87 86 85 83 82 82 81 81 79
Dewpt73 73 70 71 74 75 74 74 74 73 72 71 72
Altim29.93 29.92 29.90 29.87 29.86 29.87 29.87 29.88 29.86 29.86 29.84 29.82 29.82
VIS10 10 10 10 10 10 10 10 10 10 10 10 10
CIG250 130 130 -- 250 250 -- 250 250 -- -- 250 250
CoverBKNBKNBKNSCTBKNBKNSCTBKNBKNSCTSCTBKNBKN
FltCatVFRVFRVFRVFRVFRVFRVFRVFRVFRVFRVFRVFRVFR
WX----TS--------------------
WDir2202200160200210220220230250220230260
WSpd7 5 4 3 4 5 5 6 6 6 4 5 7
WGst-- -- -- -- -- -- -- -- -- -- -- -- --
Raw hourly METARs
KBWI 181954Z 22007KT 10SM SCT050 BKN250 34/23 A2993 RMK AO2 SLP134 TCU DSNT W T03390228
KBWI 182054Z 22005KT 10SM SCT050CB BKN130 BKN250 33/23 A2992 RMK AO2 SLP131 VIRGA W-NW CB NW MOV SE T03280228 56019
KBWI 182154Z VRB04KT 10SM TS SCT050CB BKN130 BKN250 30/21 A2990 RMK AO2 WSHFT 2057 RAB15E44 TSB15 SLP123 OCNL LTGCGIC SE TS SE MOV SE VIRGA E P0000 T03000211
KBWI 182254Z 16003KT 10SM FEW130 SCT250 31/22 A2987 RMK AO2 TSE11 SLP115 T03060217
KBWI 182354Z 20004KT 10SM FEW130 BKN250 31/23 A2986 RMK AO2 SLP109 60000 T03060233 10344 20289 56022
KBWI 190054Z 21005KT 10SM FEW060 BKN250 30/24 A2987 RMK AO2 SLP112 T03000239
KBWI 190154Z 22005KT 10SM FEW070 SCT250 29/23 A2987 RMK AO2 SLP114 T02940233
KBWI 190254Z 22006KT 10SM FEW070 BKN250 28/23 A2988 RMK AO2 SLP117 T02830233 52008
KBWI 190354Z 23006KT 10SM BKN250 28/23 A2986 RMK AO2 SLP111 T02780233
KBWI 190454Z 25006KT 10SM SCT250 28/23 A2986 RMK AO2 SLP110 T02780228 403440206
KBWI 190554Z 22004KT 10SM SCT250 27/22 A2984 RMK AO2 SLP104 T02720222 10306 20267 58014
KBWI 190654Z 23005KT 10SM BKN250 27/22 A2982 RMK AO2 SLP096 T02720217
KBWI 190754Z 26007KT 10SM BKN250 26/22 A2982 RMK AO2 SLP096 T02610222



Page loaded:  08:53 UTC  |   01:53 AM Pacific  |   02:53 AM Mountain  |   03:53 AM Central  |   04:53 AM Eastern

 

ADVISORIES

FORECASTS

FORECASTS

OBSERVATIONS

USER TOOLS

ABOUT US